createdAt,value
2023-09-25T00:01:44.388Z,47.25
2023-09-25T00:04:11.996Z,48.05
2023-09-25T00:06:39.327Z,47.35
2023-09-25T00:09:09.709Z,47.12
2023-09-25T00:11:37.276Z,47.40
2023-09-25T00:14:04.901Z,46.55
2023-09-25T00:16:32.114Z,45.14
2023-09-25T00:18:59.693Z,45.49
2023-09-25T00:21:27.052Z,47.82
2023-09-25T00:23:54.701Z,48.13
2023-09-25T00:26:22.223Z,48.56
2023-09-25T00:28:49.707Z,47.38
2023-09-25T00:31:17.333Z,46.92
2023-09-25T00:33:44.892Z,47.65
2023-09-25T00:36:12.175Z,48.55
2023-09-25T00:38:39.454Z,48.49
2023-09-25T00:41:06.990Z,47.20
2023-09-25T00:43:34.194Z,47.53
2023-09-25T00:46:01.404Z,47.85
2023-09-25T00:48:29.699Z,47.08
2023-09-25T00:50:57.867Z,46.14
2023-09-25T00:53:27.294Z,45.91
2023-09-25T00:55:54.993Z,46.95
2023-09-25T00:58:22.261Z,47.22
2023-09-25T01:00:49.539Z,45.17
2023-09-25T01:03:17.250Z,46.51
2023-09-25T01:05:44.850Z,45.56
2023-09-25T01:08:13.950Z,46.73
2023-09-25T01:10:42.086Z,45.98
2023-09-25T01:13:11.412Z,46.75
2023-09-25T01:15:40.372Z,45.96
2023-09-25T01:18:09.538Z,42.75
2023-09-25T01:20:37.133Z,42.56
2023-09-25T01:23:04.780Z,42.66
2023-09-25T01:25:32.366Z,42.47
2023-09-25T01:27:59.630Z,42.93
2023-09-25T01:30:27.199Z,43.89
2023-09-25T01:32:54.865Z,44.14
2023-09-25T01:35:24.585Z,43.62
2023-09-25T01:37:53.200Z,44.63
2023-09-25T01:40:20.774Z,45.38
2023-09-25T01:42:48.659Z,44.32
2023-09-25T01:45:20.861Z,43.95
2023-09-25T01:47:53.377Z,44.60
2023-09-25T01:50:22.379Z,45.20
2023-09-25T01:52:52.020Z,45.79
2023-09-25T01:55:19.240Z,46.88
2023-09-25T01:57:46.709Z,47.58
2023-09-25T02:00:14.582Z,45.15
2023-09-25T02:02:43.062Z,45.00
2023-09-25T02:05:10.690Z,44.85
2023-09-25T02:07:38.072Z,44.20
2023-09-25T02:10:06.103Z,44.16
2023-09-25T02:12:33.820Z,44.15
2023-09-25T02:15:03.430Z,46.51
2023-09-25T02:17:33.271Z,46.04
2023-09-25T02:20:14.914Z,45.45
2023-09-25T02:22:42.209Z,46.33
2023-09-25T02:25:10.210Z,45.60
2023-09-25T02:27:38.295Z,44.38
2023-09-25T02:30:07.235Z,43.68
2023-09-25T02:32:34.753Z,42.17
2023-09-25T02:35:02.184Z,43.43
2023-09-25T02:37:30.631Z,43.36
2023-09-25T02:39:58.083Z,44.73
2023-09-25T02:42:25.336Z,47.29
2023-09-25T02:44:52.874Z,47.07
2023-09-25T02:47:20.361Z,48.55
2023-09-25T02:49:47.564Z,49.10
2023-09-25T02:52:14.831Z,48.92
2023-09-25T02:54:42.389Z,48.85
2023-09-25T02:57:10.221Z,48.05
2023-09-25T02:59:37.616Z,47.92
2023-09-25T03:02:05.147Z,47.91
2023-09-25T03:04:33.211Z,46.96
2023-09-25T03:07:00.473Z,47.00
2023-09-25T03:09:28.694Z,46.78
2023-09-25T03:11:56.303Z,47.50
2023-09-25T03:14:23.551Z,47.98
2023-09-25T03:16:51.026Z,49.56
2023-09-25T03:19:18.257Z,48.50
2023-09-25T03:21:45.942Z,47.85
2023-09-25T03:24:13.472Z,47.04
2023-09-25T03:26:40.696Z,47.11
2023-09-25T03:29:07.935Z,46.13
2023-09-25T03:31:35.433Z,45.69
2023-09-25T03:34:02.712Z,46.54
2023-09-25T03:36:30.109Z,45.36
2023-09-25T03:38:58.152Z,45.55
2023-09-25T03:41:25.459Z,45.78
2023-09-25T03:43:52.666Z,46.97
2023-09-25T03:46:20.396Z,45.88
2023-09-25T03:48:48.198Z,45.65
2023-09-25T03:51:16.169Z,45.84
2023-09-25T03:53:43.730Z,46.19
2023-09-25T03:56:11.402Z,45.33
2023-09-25T03:58:38.607Z,45.48
2023-09-25T04:01:06.224Z,46.15
2023-09-25T04:03:34.089Z,45.79
2023-09-25T04:06:01.477Z,45.34
2023-09-25T04:08:28.667Z,45.28
2023-09-25T04:10:56.127Z,46.81
2023-09-25T04:13:24.165Z,45.97
2023-09-25T04:15:55.708Z,44.82
2023-09-25T04:18:23.367Z,45.94
2023-09-25T04:20:51.292Z,45.72
2023-09-25T04:23:18.524Z,46.21
2023-09-25T04:25:52.670Z,45.35
2023-09-25T04:28:21.328Z,44.30
2023-09-25T04:30:49.378Z,44.17
2023-09-25T04:33:16.671Z,43.84
2023-09-25T04:35:44.057Z,44.49
2023-09-25T04:38:11.586Z,45.49
2023-09-25T04:40:38.841Z,46.03
2023-09-25T04:43:06.028Z,46.69
2023-09-25T04:45:33.591Z,46.54
2023-09-25T04:48:01.001Z,45.19
2023-09-25T04:50:28.229Z,45.29
2023-09-25T04:52:55.690Z,45.54
2023-09-25T04:55:22.957Z,44.32
2023-09-25T04:57:50.412Z,46.72
2023-09-25T05:00:28.403Z,45.98
2023-09-25T05:02:57.013Z,46.24
2023-09-25T05:05:24.900Z,45.72
2023-09-25T05:07:53.056Z,45.90
2023-09-25T05:10:22.900Z,44.74
2023-09-25T05:12:51.151Z,43.76
2023-09-25T05:15:18.887Z,45.35
2023-09-25T05:17:46.500Z,46.22
2023-09-25T05:20:17.204Z,46.02
2023-09-25T05:22:45.832Z,46.45
2023-09-25T05:25:13.963Z,45.88
2023-09-25T05:27:42.260Z,45.34
2023-09-25T05:30:13.262Z,46.20
2023-09-25T05:32:41.529Z,46.37
2023-09-25T05:35:09.787Z,46.91
2023-09-25T05:37:37.822Z,45.58
2023-09-25T05:40:11.939Z,43.62
2023-09-25T05:42:39.688Z,45.52
2023-09-25T05:45:07.414Z,45.12
2023-09-25T05:47:35.068Z,46.35
2023-09-25T05:50:04.052Z,45.77
2023-09-25T05:52:31.266Z,45.98
2023-09-25T05:54:58.569Z,46.51
2023-09-25T05:57:26.990Z,45.47
2023-09-25T05:59:54.274Z,46.50
2023-09-25T06:02:25.128Z,46.23
2023-09-25T06:04:55.780Z,46.23
2023-09-25T06:07:23.159Z,45.83
2023-09-25T06:09:50.435Z,45.49
2023-09-25T06:12:17.986Z,45.48
2023-09-25T06:14:45.356Z,45.54
2023-09-25T06:17:12.645Z,47.39
2023-09-25T06:19:40.622Z,46.64
2023-09-25T06:22:07.950Z,46.10
2023-09-25T06:24:35.166Z,45.60
2023-09-25T06:27:05.953Z,46.23
2023-09-25T06:29:33.168Z,45.63
2023-09-25T06:32:02.008Z,45.13
2023-09-25T06:34:29.910Z,44.71
2023-09-25T06:36:57.331Z,45.15
2023-09-25T06:39:24.909Z,44.46
2023-09-25T06:41:52.561Z,43.92
2023-09-25T06:44:20.926Z,45.75
2023-09-25T06:46:48.370Z,44.88
2023-09-25T06:49:16.653Z,45.42
2023-09-25T06:51:43.927Z,45.09
2023-09-25T06:54:13.068Z,46.16
2023-09-25T06:56:40.638Z,46.78
2023-09-25T06:59:07.839Z,45.89
2023-09-25T07:01:35.103Z,44.54
2023-09-25T07:04:02.875Z,44.35
2023-09-25T07:06:31.466Z,44.74
2023-09-25T07:08:58.823Z,44.10
2023-09-25T07:11:26.533Z,44.71
2023-09-25T07:13:54.418Z,44.10
2023-09-25T07:16:21.717Z,44.44
2023-09-25T07:18:50.537Z,43.31
2023-09-25T07:21:18.198Z,43.54
2023-09-25T07:23:45.728Z,43.64
2023-09-25T07:26:16.938Z,43.58
2023-09-25T07:28:46.136Z,43.56
2023-09-25T07:31:16.625Z,43.89
2023-09-25T07:33:44.263Z,43.48
2023-09-25T07:36:11.606Z,42.65
2023-09-25T07:38:39.231Z,42.06
2023-09-25T07:41:07.178Z,41.57
2023-09-25T07:46:05.192Z,41.67
2023-09-25T07:48:32.676Z,42.58
2023-09-25T07:51:00.142Z,43.57
2023-09-25T07:53:29.645Z,41.74
2023-09-25T07:55:58.223Z,41.91
2023-09-25T07:58:25.445Z,42.67
2023-09-25T08:00:56.338Z,42.63
2023-09-25T08:03:24.532Z,43.36
2023-09-25T08:05:54.706Z,43.88
2023-09-25T08:08:22.587Z,43.62
2023-09-25T08:10:50.138Z,42.00
2023-09-25T08:13:19.474Z,41.52
2023-09-25T08:15:46.731Z,42.72
2023-09-25T08:18:15.533Z,43.28
2023-09-25T08:20:42.879Z,43.81
2023-09-25T08:23:10.728Z,42.35
2023-09-25T08:25:38.262Z,42.15
2023-09-25T08:28:05.439Z,41.22
2023-09-25T08:30:33.363Z,40.75
2023-09-25T08:33:01.002Z,40.56
2023-09-25T08:35:28.249Z,40.47
2023-09-25T08:37:55.887Z,41.54
2023-09-25T08:40:23.526Z,40.89
2023-09-25T08:42:59.012Z,40.35
2023-09-25T08:45:38.213Z,39.10
2023-09-25T08:48:06.461Z,38.24
2023-09-25T08:50:34.510Z,39.76
2023-09-25T08:53:02.553Z,40.24
2023-09-25T08:55:30.284Z,40.45
2023-09-25T08:57:57.984Z,40.52
2023-09-25T09:00:25.741Z,39.73
2023-09-25T09:02:53.356Z,38.05
2023-09-25T09:05:20.615Z,37.50
2023-09-25T09:08:01.230Z,37.47
2023-09-25T09:10:32.242Z,37.32
2023-09-25T09:13:03.077Z,37.09
2023-09-25T09:15:31.605Z,37.51
2023-09-25T09:17:59.185Z,38.42
2023-09-25T09:20:37.699Z,38.62
2023-09-25T09:23:07.169Z,38.67
2023-09-25T09:25:35.245Z,39.51
2023-09-25T09:28:05.752Z,40.39
2023-09-25T09:30:33.181Z,39.55
2023-09-25T09:33:00.760Z,39.83
2023-09-25T09:35:28.554Z,39.88
2023-09-25T09:37:56.814Z,39.73
2023-09-25T09:40:25.434Z,39.41
2023-09-25T09:42:53.295Z,40.19
2023-09-25T09:45:21.070Z,40.57
2023-09-25T09:47:54.681Z,40.12
2023-09-25T09:50:22.753Z,40.09
2023-09-25T09:52:50.497Z,40.35
2023-09-25T09:55:18.878Z,39.92
2023-09-25T09:57:46.418Z,39.96
2023-09-25T10:00:14.215Z,39.54
2023-09-25T10:02:41.827Z,39.85
2023-09-25T10:05:12.304Z,39.17
2023-09-25T10:07:58.507Z,39.46
2023-09-25T10:10:26.009Z,39.20
2023-09-25T10:12:54.157Z,39.54
2023-09-25T10:15:23.205Z,41.40
2023-09-25T10:17:50.843Z,40.27
2023-09-25T10:20:34.795Z,39.75
2023-09-25T10:23:09.396Z,39.76
2023-09-25T10:25:56.923Z,39.41
2023-09-25T10:28:31.541Z,38.83
2023-09-25T10:30:59.577Z,39.90
2023-09-25T10:33:30.625Z,39.95
2023-09-25T10:36:01.967Z,40.06
2023-09-25T10:38:32.349Z,39.61
2023-09-25T10:41:00.901Z,39.76
2023-09-25T10:43:28.150Z,40.38
2023-09-25T10:45:56.113Z,40.37
2023-09-25T10:48:26.658Z,41.06
2023-09-25T10:50:54.019Z,39.71
2023-09-25T10:53:23.100Z,39.88
2023-09-25T10:55:50.949Z,40.31
2023-09-25T10:58:19.552Z,41.07
2023-09-25T11:00:47.391Z,39.90
2023-09-25T11:03:14.898Z,40.44
2023-09-25T11:05:42.738Z,40.10
2023-09-25T11:08:11.543Z,40.78
2023-09-25T11:10:39.405Z,40.25
2023-09-25T11:13:07.003Z,39.63
2023-09-25T11:15:38.177Z,39.40
2023-09-25T11:18:08.013Z,40.99
2023-09-25T11:20:35.913Z,40.28
2023-09-25T11:23:18.349Z,39.49
2023-09-25T11:25:51.928Z,40.66
2023-09-25T11:28:26.604Z,39.79
2023-09-25T11:30:57.275Z,39.17
2023-09-25T11:33:25.009Z,39.26
2023-09-25T11:35:56.969Z,39.28
2023-09-25T11:38:26.519Z,39.41
2023-09-25T11:40:54.453Z,37.79
2023-09-25T11:43:24.401Z,37.97
2023-09-25T11:45:52.015Z,36.94
2023-09-25T11:48:19.842Z,37.20
2023-09-25T11:50:47.917Z,36.92
2023-09-25T11:53:15.584Z,35.59
2023-09-25T11:55:42.819Z,35.51
2023-09-25T11:58:10.686Z,35.33
2023-09-25T12:00:38.375Z,34.54
2023-09-25T12:03:09.937Z,34.04
2023-09-25T12:05:38.346Z,34.46
2023-09-25T12:08:13.620Z,34.30
2023-09-25T12:10:40.948Z,33.95
2023-09-25T12:13:10.044Z,33.82
2023-09-25T12:15:37.633Z,34.01
2023-09-25T12:18:05.340Z,33.19
2023-09-25T12:20:33.303Z,34.29
2023-09-25T12:23:00.502Z,33.26
2023-09-25T12:25:28.766Z,33.96
2023-09-25T12:27:56.372Z,34.54
2023-09-25T12:30:23.730Z,34.80
2023-09-25T12:32:51.169Z,34.56
2023-09-25T12:35:19.888Z,33.48
2023-09-25T12:37:47.819Z,33.51
2023-09-25T12:40:18.665Z,33.51
2023-09-25T12:42:55.287Z,33.66
2023-09-25T12:45:24.200Z,33.02
2023-09-25T12:47:52.191Z,34.38
2023-09-25T12:50:19.513Z,34.00
2023-09-25T12:52:49.717Z,33.02
2023-09-25T12:55:17.328Z,33.18
2023-09-25T12:57:44.632Z,32.94
2023-09-25T13:00:12.045Z,33.39
2023-09-25T13:02:39.574Z,31.82
2023-09-25T13:05:07.283Z,32.00
2023-09-25T13:07:34.744Z,32.07
2023-09-25T13:10:08.777Z,31.97
2023-09-25T13:12:36.119Z,32.43
2023-09-25T13:15:05.288Z,32.36
2023-09-25T13:17:35.233Z,32.32
2023-09-25T13:20:08.902Z,32.43
2023-09-25T13:22:38.252Z,33.08
2023-09-25T13:25:06.701Z,31.54
2023-09-25T13:27:34.244Z,31.05
2023-09-25T13:30:01.695Z,31.52
2023-09-25T13:32:29.922Z,31.24
2023-09-25T13:34:57.338Z,31.96
2023-09-25T13:37:24.631Z,32.11
2023-09-25T13:39:52.127Z,31.92
2023-09-25T13:42:20.051Z,31.79
2023-09-25T13:44:47.457Z,32.13
2023-09-25T13:47:15.404Z,33.18
2023-09-25T13:50:02.913Z,32.82
2023-09-25T13:52:31.714Z,32.51
2023-09-25T13:54:59.089Z,31.94
2023-09-25T13:57:26.338Z,33.58
2023-09-25T13:59:54.175Z,31.69
2023-09-25T14:02:23.735Z,32.98
2023-09-25T14:04:52.504Z,32.80
2023-09-25T14:07:20.687Z,32.03
2023-09-25T14:09:47.946Z,31.97
2023-09-25T14:12:15.426Z,32.84
2023-09-25T14:14:43.626Z,32.68
2023-09-25T14:17:10.952Z,34.51
2023-09-25T14:19:38.442Z,31.70
2023-09-25T14:22:05.727Z,33.50
2023-09-25T14:24:39.908Z,32.41
2023-09-25T14:27:11.118Z,31.96
2023-09-25T14:29:39.164Z,32.12
2023-09-25T14:32:06.625Z,31.46
2023-09-25T14:34:34.255Z,31.83
2023-09-25T14:37:01.577Z,32.47
2023-09-25T14:39:30.119Z,33.14
2023-09-25T14:41:57.968Z,31.51
2023-09-25T14:44:26.007Z,30.58
2023-09-25T14:46:54.661Z,31.75
2023-09-25T14:49:22.515Z,31.28
2023-09-25T14:51:52.590Z,32.46
2023-09-25T14:54:20.395Z,33.28
2023-09-25T14:56:47.863Z,32.55
2023-09-25T14:59:15.093Z,32.55
2023-09-25T15:01:42.395Z,31.83
2023-09-25T15:04:10.267Z,30.89
2023-09-25T15:06:37.594Z,31.47
2023-09-25T15:09:05.015Z,31.59
2023-09-25T15:11:32.583Z,31.15
2023-09-25T15:14:00.130Z,31.34
2023-09-25T15:16:27.707Z,30.75
2023-09-25T15:18:55.319Z,31.79
2023-09-25T15:21:22.561Z,32.55
2023-09-25T15:23:50.080Z,31.74
2023-09-25T15:26:17.725Z,32.40
2023-09-25T15:28:45.032Z,33.38
2023-09-25T15:31:12.356Z,33.14
2023-09-25T15:33:40.047Z,33.13
2023-09-25T15:36:07.835Z,33.27
2023-09-25T15:38:35.261Z,33.54
2023-09-25T15:41:02.875Z,34.45
2023-09-25T15:43:30.405Z,34.08
2023-09-25T15:45:57.689Z,33.83
2023-09-25T15:48:27.009Z,34.08
2023-09-25T15:50:54.278Z,34.02
2023-09-25T15:53:21.578Z,34.01
2023-09-25T15:55:49.348Z,34.31
2023-09-25T15:58:17.199Z,33.79
2023-09-25T16:00:44.614Z,34.78
2023-09-25T16:03:12.812Z,34.82
2023-09-25T16:05:40.462Z,35.13
2023-09-25T16:08:07.980Z,34.22
2023-09-25T16:10:35.659Z,34.81
2023-09-25T16:13:03.218Z,35.22
2023-09-25T16:15:34.254Z,35.21
2023-09-25T16:18:05.429Z,35.72
2023-09-25T16:20:34.175Z,36.08
2023-09-25T16:23:01.651Z,35.86
2023-09-25T16:25:30.089Z,35.58
2023-09-25T16:27:57.715Z,36.45
2023-09-25T16:30:26.421Z,35.85
2023-09-25T16:32:54.588Z,36.01
2023-09-25T16:35:22.333Z,35.61
2023-09-25T16:37:49.933Z,36.07
2023-09-25T16:40:17.562Z,36.40
2023-09-25T16:42:45.416Z,36.75
2023-09-25T16:45:13.281Z,37.47
2023-09-25T16:47:44.294Z,37.75
2023-09-25T16:50:11.563Z,39.02
2023-09-25T16:52:41.443Z,38.21
2023-09-25T16:55:10.680Z,38.22
2023-09-25T16:57:38.168Z,38.90
2023-09-25T17:00:06.483Z,40.30
2023-09-25T17:02:34.796Z,41.32
2023-09-25T17:05:02.187Z,40.81
2023-09-25T17:07:29.844Z,41.75
2023-09-25T17:09:58.839Z,41.87
2023-09-25T17:12:26.488Z,42.04
2023-09-25T17:14:54.659Z,41.71
2023-09-25T17:17:23.228Z,42.68
2023-09-25T17:19:51.186Z,43.18
2023-09-25T17:22:18.627Z,42.84
2023-09-25T17:24:46.432Z,43.43
2023-09-25T17:27:17.434Z,44.59
2023-09-25T17:29:47.823Z,43.27
2023-09-25T17:32:15.677Z,44.43
2023-09-25T17:34:46.998Z,43.15
2023-09-25T17:37:15.498Z,43.27
2023-09-25T17:39:43.421Z,43.53
2023-09-25T17:42:11.155Z,43.31
2023-09-25T17:44:39.010Z,43.22
2023-09-25T17:47:06.796Z,44.10
2023-09-25T17:49:34.724Z,44.55
2023-09-25T17:52:14.114Z,43.95
2023-09-25T17:54:50.240Z,45.09
2023-09-25T17:57:18.452Z,44.10
2023-09-25T17:59:46.805Z,43.98
2023-09-25T18:02:15.890Z,44.02
2023-09-25T18:04:45.246Z,44.27
2023-09-25T18:07:13.332Z,44.98
2023-09-25T18:09:41.517Z,46.37
2023-09-25T18:12:10.722Z,45.33
2023-09-25T18:14:41.974Z,46.03
2023-09-25T18:17:10.669Z,46.49
2023-09-25T18:19:39.244Z,46.89
2023-09-25T18:22:07.797Z,46.60
2023-09-25T18:24:36.579Z,46.49
2023-09-25T18:27:05.615Z,46.07
2023-09-25T18:29:36.626Z,46.47
2023-09-25T18:32:07.279Z,47.19
2023-09-25T18:34:39.320Z,47.22
2023-09-25T18:37:09.198Z,47.14
2023-09-25T18:39:37.938Z,46.77
2023-09-25T18:42:07.173Z,46.55
2023-09-25T18:44:37.461Z,45.56
2023-09-25T18:47:06.624Z,46.35
2023-09-25T18:49:36.912Z,46.71
2023-09-25T18:52:05.457Z,46.42
2023-09-25T18:54:35.116Z,45.36
2023-09-25T18:57:03.798Z,45.37
2023-09-25T18:59:31.319Z,45.08
2023-09-25T19:02:00.964Z,45.23
2023-09-25T19:04:29.759Z,46.57
2023-09-25T19:06:58.231Z,46.21
2023-09-25T19:09:29.193Z,46.14
2023-09-25T19:12:08.341Z,46.50
2023-09-25T19:14:36.490Z,46.81
2023-09-25T19:17:05.752Z,46.23
2023-09-25T19:19:33.556Z,46.29
2023-09-25T19:22:01.633Z,46.26
2023-09-25T19:24:29.734Z,46.69
2023-09-25T19:26:58.316Z,45.29
2023-09-25T19:29:28.502Z,46.63
2023-09-25T19:31:57.784Z,47.16
2023-09-25T19:34:26.223Z,46.83
2023-09-25T19:36:55.256Z,47.50
2023-09-25T19:39:24.956Z,46.91
2023-09-25T19:41:54.456Z,46.42
2023-09-25T19:44:22.478Z,47.30
2023-09-25T19:46:50.717Z,47.33
2023-09-25T19:49:20.709Z,45.99
2023-09-25T19:51:50.401Z,47.31
2023-09-25T19:54:20.776Z,47.39
2023-09-25T19:56:49.124Z,47.38
2023-09-25T19:59:16.657Z,46.71
2023-09-25T20:01:45.794Z,46.82
2023-09-25T20:04:14.139Z,46.41
2023-09-25T20:06:41.895Z,46.64
2023-09-25T20:09:11.495Z,47.05
2023-09-25T20:11:39.294Z,47.45
2023-09-25T20:14:07.192Z,47.39
2023-09-25T20:16:34.959Z,46.85
2023-09-25T20:19:03.646Z,46.83
2023-09-25T20:21:31.077Z,46.57
2023-09-25T20:23:58.526Z,46.47
2023-09-25T20:26:26.918Z,48.15
2023-09-25T20:28:54.179Z,47.80
2023-09-25T20:31:22.203Z,48.18
2023-09-25T20:33:50.174Z,47.46
2023-09-25T20:36:18.985Z,47.83
2023-09-25T20:38:48.727Z,47.40
2023-09-25T20:41:17.493Z,47.27
2023-09-25T20:43:45.031Z,48.43
2023-09-25T20:46:13.791Z,49.64
2023-09-25T20:48:43.053Z,48.86
2023-09-25T20:51:15.085Z,48.19
2023-09-25T20:53:44.004Z,48.22
2023-09-25T20:56:11.618Z,48.33
2023-09-25T20:58:39.104Z,48.42
2023-09-25T21:01:08.554Z,49.22
2023-09-25T21:03:35.946Z,47.72
2023-09-25T21:06:03.308Z,47.71
2023-09-25T21:08:30.830Z,48.05
2023-09-25T21:10:59.288Z,48.43
2023-09-25T21:13:26.658Z,48.27
2023-09-25T21:15:54.174Z,49.29
2023-09-25T21:18:21.472Z,48.63
2023-09-25T21:20:48.847Z,49.58
2023-09-25T21:23:16.345Z,49.49
2023-09-25T21:25:43.808Z,49.07
2023-09-25T21:28:11.063Z,49.95
2023-09-25T21:30:40.743Z,49.15
2023-09-25T21:33:08.184Z,49.63
2023-09-25T21:35:37.854Z,48.41
2023-09-25T21:38:05.394Z,47.86
2023-09-25T21:40:32.614Z,46.95
2023-09-25T21:43:00.031Z,47.26
2023-09-25T21:45:27.743Z,47.99
2023-09-25T21:47:54.960Z,48.69
2023-09-25T21:50:22.456Z,49.05
2023-09-25T21:52:50.000Z,49.14
2023-09-25T21:55:17.356Z,49.30
2023-09-25T21:57:44.614Z,48.58
2023-09-25T22:00:15.146Z,49.39
2023-09-25T22:02:42.846Z,49.64
2023-09-25T22:05:10.833Z,48.97
2023-09-25T22:07:38.961Z,48.64
2023-09-25T22:10:11.831Z,49.05
2023-09-25T22:12:39.408Z,48.78
2023-09-25T22:15:07.716Z,49.02
2023-09-25T22:17:34.989Z,49.83
2023-09-25T22:20:05.757Z,49.35
2023-09-25T22:22:33.674Z,48.34
2023-09-25T22:25:01.047Z,49.90
2023-09-25T22:27:28.259Z,49.04
2023-09-25T22:29:55.688Z,49.66
2023-09-25T22:32:22.854Z,49.81
2023-09-25T22:34:50.035Z,49.17
2023-09-25T22:37:21.157Z,48.27
2023-09-25T22:39:48.424Z,47.41
2023-09-25T22:42:15.731Z,48.81
2023-09-25T22:44:43.242Z,49.32
2023-09-25T22:47:10.586Z,48.76
2023-09-25T22:49:37.856Z,48.43
2023-09-25T22:52:05.462Z,49.40
2023-09-25T22:54:32.695Z,49.28
2023-09-25T22:56:59.896Z,48.06
2023-09-25T22:59:27.369Z,47.90
2023-09-25T23:02:14.510Z,48.54
2023-09-25T23:04:42.143Z,50.13
2023-09-25T23:07:09.975Z,50.49
2023-09-25T23:09:37.455Z,49.85
2023-09-25T23:12:05.751Z,49.46
2023-09-25T23:14:33.021Z,49.05
2023-09-25T23:17:00.697Z,51.55
2023-09-25T23:19:28.638Z,49.40
2023-09-25T23:21:56.303Z,48.88
2023-09-25T23:24:23.888Z,48.45
2023-09-25T23:26:51.358Z,48.86
2023-09-25T23:29:18.737Z,49.22
2023-09-25T23:31:46.044Z,49.10
2023-09-25T23:34:13.648Z,49.63
2023-09-25T23:36:41.082Z,48.37
2023-09-25T23:39:11.488Z,48.78
2023-09-25T23:41:39.360Z,48.82
2023-09-25T23:44:08.002Z,48.73
2023-09-25T23:46:35.305Z,50.28
2023-09-25T23:49:02.976Z,49.22
2023-09-25T23:51:30.216Z,48.29
2023-09-25T23:53:57.430Z,47.85
2023-09-25T23:56:25.157Z,50.16
2023-09-25T23:58:52.336Z,51.39
